Munster, North Dakota
Current Conditions -  °F | °C
As of 2:35 PM on Friday 28 Nov 2014 (Local Time) from K46D Reporting Station
Overcast Overcast  
Wind Chill: -2°   Ceiling: 700
Heat Index: 14°   Visibility: 10mi
Dew Point: 10°   Wind: 16mph
Humidity: 86%   Direction: 130°SE
Pressure: 29.71"   Gusts: NA
Location:  47.6736°N, 98.8981°W
Report Text: K46D 282035Z AUTO 13014KT 10SM OVC007 M10/M12 A2971 RMK AO2
Loading
Personal Weather Stations






























Interactive Weather Map New forecast layout! Learn more

10-Day Weather Forecast

Advertisements
Track Severe Weather on mobile